Time;durP1;ratioP1;P1;durP2;ratioP2;P2;SDS_P1;SDS_P2;PMS_P1;PMS_P2;Temp;Humidity;BMP_temperature;BMP_pressure;BME280_temperature;BME280_humidity;BME280_pressure;Samples;Min_cycle;Max_cycle;Signal;HPM_P1;HPM_P2
2021/12/14 00:00:39;;;;;;;5.00;4.07;;;9.10;99.90;;;;;;5065815;28;20169;-82
2021/12/14 00:03:05;;;;;;;4.40;3.70;;;9.00;99.90;;;;;;5067508;28;20169;-81
2021/12/14 00:05:34;;;;;;;4.83;3.83;;;8.90;99.90;;;;;;5063418;28;20594;-81
2021/12/14 00:08:04;;;;;;;5.13;4.07;;;9.10;99.90;;;;;;5045505;28;20208;-81
2021/12/14 00:13:31;;;;;;;4.97;3.93;;;9.00;99.90;;;;;;5072447;28;20145;-82
2021/12/14 00:15:59;;;;;;;5.40;3.93;;;8.90;99.90;;;;;;5064849;28;20279;-82
2021/12/14 00:18:25;;;;;;;5.43;3.97;;;8.80;99.90;;;;;;5065273;28;20172;-82
2021/12/14 00:20:55;;;;;;;5.40;4.10;;;8.80;99.90;;;;;;5064352;28;20716;-82
2021/12/14 00:26:11;;;;;;;5.47;4.13;;;8.90;99.90;;;;;;5060290;28;20179;-84
2021/12/14 00:28:38;;;;;;;5.60;4.50;;;8.80;99.90;;;;;;5057940;28;20299;-84
2021/12/14 00:31:13;;;;;;;5.97;4.60;;;8.80;99.90;;;;;;5056259;28;20645;-86
2021/12/14 00:33:41;;;;;;;5.37;3.83;;;8.80;99.90;;;;;;5057572;28;20206;-86
2021/12/14 00:36:09;;;;;;;6.70;4.63;;;9.00;99.90;;;;;;5054538;28;20186;-87
2021/12/14 00:38:38;;;;;;;6.17;4.40;;;9.00;99.90;;;;;;5056230;28;20204;-82
2021/12/14 00:41:15;;;;;;;7.43;5.80;;;9.00;99.90;;;;;;5055971;28;20257;-82
2021/12/14 00:43:42;;;;;;;6.93;5.43;;;9.10;99.90;;;;;;5056071;28;20173;-82
2021/12/14 00:46:08;;;;;;;6.90;5.30;;;9.20;99.90;;;;;;5056705;28;20241;-83
2021/12/14 00:48:34;;;;;;;6.00;5.00;;;9.00;99.90;;;;;;5058946;28;20323;-81
2021/12/14 00:51:03;;;;;;;7.70;5.20;;;8.90;99.90;;;;;;5063252;28;20279;-82
2021/12/14 00:53:29;;;;;;;6.20;5.13;;;9.10;99.90;;;;;;5063964;28;20633;-82
2021/12/14 00:55:57;;;;;;;6.10;4.87;;;9.30;99.90;;;;;;5064518;28;20173;-81
2021/12/14 00:58:24;;;;;;;5.77;4.63;;;9.30;99.90;;;;;;5062835;28;20233;-84
2021/12/14 01:00:56;;;;;;;6.43;5.40;;;9.20;99.90;;;;;;5060289;28;20169;-82
2021/12/14 01:03:23;;;;;;;6.87;5.27;;;9.20;99.90;;;;;;5061487;28;20172;-82
2021/12/14 01:05:50;;;;;;;6.30;5.40;;;9.20;99.90;;;;;;5062489;28;20165;-82
2021/12/14 01:08:20;;;;;;;7.10;5.37;;;9.30;99.90;;;;;;5063182;28;20208;-81
2021/12/14 01:11:04;;;;;;;6.30;5.20;;;9.20;99.90;;;;;;5079626;28;20676;-81
2021/12/14 01:13:33;;;;;;;6.90;5.50;;;9.20;99.90;;;;;;5074794;28;20165;-81
2021/12/14 01:16:33;;;;;;;7.67;6.20;;;9.20;99.90;;;;;;5078776;28;20192;-82
2021/12/14 01:19:14;;;;;;;7.97;6.27;;;9.10;99.90;;;;;;5064194;28;20211;-82
2021/12/14 01:27:13;;;;;;;7.53;5.67;;;8.90;99.90;;;;;;5057661;28;20641;-83
2021/12/14 01:29:41;;;;;;;8.03;6.03;;;9.00;99.90;;;;;;5073583;28;20173;-81
2021/12/14 01:32:08;;;;;;;8.17;5.70;;;9.00;99.90;;;;;;5079203;28;20167;-81
2021/12/14 01:34:36;;;;;;;8.13;6.63;;;8.90;99.90;;;;;;5078814;28;20161;-81
2021/12/14 01:37:08;;;;;;;9.10;6.77;;;8.90;99.90;;;;;;5075552;28;20195;-82
2021/12/14 01:40:00;;;;;;;8.30;6.80;;;9.10;99.90;;;;;;5062496;28;20180;-82
2021/12/14 01:42:37;;;;;;;11.70;7.23;;;9.10;99.90;;;;;;5057020;28;20234;-83
2021/12/14 01:45:15;;;;;;;8.37;6.80;;;9.10;99.90;;;;;;5066905;28;20184;-82
2021/12/14 01:47:50;;;;;;;8.30;7.00;;;9.10;99.90;;;;;;5060529;28;20216;-82
2021/12/14 01:50:21;;;;;;;9.00;7.47;;;9.00;99.90;;;;;;5055791;28;20531;-82
2021/12/14 01:52:47;;;;;;;8.97;7.83;;;9.00;99.90;;;;;;5058067;28;20176;-82
2021/12/14 01:55:17;;;;;;;9.10;7.33;;;9.00;99.90;;;;;;5055399;28;20210;-82
2021/12/14 01:57:43;;;;;;;10.00;8.13;;;9.00;99.90;;;;;;5054894;28;20180;-82
2021/12/14 02:00:21;;;;;;;9.83;7.97;;;8.90;99.90;;;;;;5054618;28;20272;-86
2021/12/14 02:02:48;;;;;;;10.70;8.53;;;8.80;99.90;;;;;;5054104;28;20667;-82
2021/12/14 02:05:22;;;;;;;10.03;8.20;;;8.70;99.90;;;;;;5054162;28;20178;-82
2021/12/14 02:07:48;;;;;;;9.90;8.17;;;8.70;99.90;;;;;;5054541;28;20307;-83
2021/12/14 02:10:27;;;;;;;12.50;8.67;;;8.80;99.90;;;;;;5054566;28;20172;-82
2021/12/14 02:12:54;;;;;;;10.33;8.17;;;8.80;99.90;;;;;;5054653;28;20640;-82
2021/12/14 02:15:32;;;;;;;11.57;8.40;;;8.70;99.90;;;;;;5055261;28;20184;-81
2021/12/14 02:18:00;;;;;;;11.87;8.30;;;8.60;99.90;;;;;;5054152;28;20181;-81
2021/12/14 02:20:33;;;;;;;10.13;7.97;;;8.50;99.90;;;;;;5055309;28;20173;-81
2021/12/14 02:23:00;;;;;;;12.53;8.73;;;8.60;99.90;;;;;;5054182;28;20192;-81
2021/12/14 02:25:27;;;;;;;11.13;8.77;;;8.70;99.90;;;;;;5054646;28;20754;-82
2021/12/14 02:27:56;;;;;;;11.93;9.03;;;8.60;99.90;;;;;;5057404;28;20262;-82
2021/12/14 02:30:26;;;;;;;11.60;9.43;;;8.70;99.90;;;;;;5061926;28;20184;-83
2021/12/14 02:32:55;;;;;;;12.00;9.23;;;8.80;99.90;;;;;;5059916;28;20176;-82
2021/12/14 02:35:23;;;;;;;14.47;10.07;;;8.70;99.90;;;;;;5058584;28;20223;-81
2021/12/14 02:37:55;;;;;;;12.40;9.40;;;8.60;99.90;;;;;;5060047;28;20177;-81
2021/12/14 02:40:32;;;;;;;13.23;10.17;;;8.60;99.90;;;;;;5061355;28;20177;-82
2021/12/14 02:43:02;;;;;;;14.20;10.60;;;8.60;99.90;;;;;;5068109;28;20172;-81
2021/12/14 02:45:27;;;;;;;12.53;10.33;;;8.50;99.90;;;;;;5064394;28;20172;-81
2021/12/14 02:47:55;;;;;;;14.13;10.20;;;8.70;99.90;;;;;;5060238;28;20213;-82
2021/12/14 02:50:21;;;;;;;13.93;10.77;;;8.60;99.90;;;;;;5058151;28;20527;-82
2021/12/14 02:52:47;;;;;;;13.70;10.77;;;8.60;99.90;;;;;;5059665;28;20173;-81
2021/12/14 02:55:20;;;;;;;13.33;10.33;;;8.60;99.90;;;;;;5057213;28;20177;-84
2021/12/14 02:57:51;;;;;;;14.33;10.33;;;8.60;99.90;;;;;;5053550;28;20188;-85
2021/12/14 03:00:28;;;;;;;16.87;10.90;;;8.60;99.90;;;;;;5052857;28;20173;-88
2021/12/14 03:02:54;;;;;;;16.33;11.10;;;8.80;99.90;;;;;;5052955;28;20180;-83
2021/12/14 03:05:27;;;;;;;14.17;10.93;;;8.70;99.90;;;;;;5053743;28;20180;-82
2021/12/14 03:08:09;;;;;;;16.60;10.90;;;8.80;99.90;;;;;;5054766;28;20215;-82
2021/12/14 03:10:52;;;;;;;13.40;10.23;;;8.60;99.90;;;;;;5056841;28;20173;-83
2021/12/14 03:13:19;;;;;;;14.93;11.17;;;8.50;99.90;;;;;;5055625;28;20169;-83
2021/12/14 03:15:52;;;;;;;15.80;11.23;;;8.50;99.90;;;;;;5068330;28;20176;-81
2021/12/14 03:18:37;;;;;;;15.07;11.73;;;8.70;99.90;;;;;;5059286;28;20649;-83
2021/12/14 03:21:09;;;;;;;14.00;10.20;;;8.70;99.90;;;;;;5064009;28;20226;-81
2021/12/14 03:23:50;;;;;;;14.90;10.83;;;8.80;99.90;;;;;;5060775;28;20188;-84
2021/12/14 03:26:20;;;;;;;15.03;10.47;;;8.50;99.90;;;;;;5055770;28;20180;-84
2021/12/14 03:28:50;;;;;;;13.70;11.03;;;8.60;99.90;;;;;;5052621;28;20215;-83
2021/12/14 03:31:27;;;;;;;15.73;10.97;;;8.60;99.90;;;;;;5052559;28;20172;-84
2021/12/14 03:34:02;;;;;;;15.60;11.17;;;8.50;99.90;;;;;;5052774;28;20172;-82
2021/12/14 03:36:35;;;;;;;15.90;12.00;;;8.60;99.90;;;;;;5053215;28;20180;-82
2021/12/14 03:39:12;;;;;;;15.53;10.60;;;8.50;99.90;;;;;;5053502;28;20201;-84
2021/12/14 03:41:46;;;;;;;14.57;10.63;;;8.40;99.90;;;;;;5053818;28;20177;-83
2021/12/14 03:44:16;;;;;;;17.27;11.17;;;8.40;99.90;;;;;;5053018;28;20200;-88
2021/12/14 03:46:58;;;;;;;16.30;11.30;;;8.50;99.90;;;;;;5052007;28;20581;-83
2021/12/14 03:49:59;;;;;;;15.73;11.73;;;8.40;99.90;;;;;;5052593;28;20192;-83
2021/12/14 03:52:34;;;;;;;17.70;11.87;;;8.40;99.90;;;;;;5008410;28;20578;-82
2021/12/14 03:55:04;;;;;;;16.77;11.97;;;8.50;99.90;;;;;;5052340;28;20674;-81
2021/12/14 03:57:30;;;;;;;15.10;11.77;;;8.60;99.90;;;;;;5053497;28;20205;-82
2021/12/14 03:59:56;;;;;;;21.43;12.37;;;8.50;99.90;;;;;;5067003;28;20164;-81
2021/12/14 04:02:22;;;;;;;18.27;12.20;;;8.70;99.90;;;;;;5074449;28;20294;-81
2021/12/14 04:05:01;;;;;;;18.00;12.63;;;8.60;99.90;;;;;;5062642;28;20718;-82
2021/12/14 04:07:43;;;;;;;16.77;12.80;;;8.60;99.90;;;;;;5056895;28;20219;-86
2021/12/14 04:10:20;;;;;;;18.33;13.00;;;8.60;99.90;;;;;;5055737;28;20641;-84
2021/12/14 04:12:46;;;;;;;17.57;12.77;;;8.60;99.90;;;;;;5057759;28;20179;-91
2021/12/14 04:15:12;;;;;;;17.33;12.73;;;8.60;99.90;;;;;;5075037;28;20180;-81
2021/12/14 04:17:40;;;;;;;16.70;12.93;;;8.70;99.90;;;;;;5074809;28;20188;-82
2021/12/14 04:20:28;;;;;;;17.50;12.43;;;8.80;99.90;;;;;;5077340;28;20157;-81
2021/12/14 04:22:54;;;;;;;16.67;11.73;;;8.70;99.90;;;;;;5068933;28;20205;-82
2021/12/14 04:25:28;;;;;;;17.27;12.70;;;8.70;99.90;;;;;;5062107;28;20204;-85
2021/12/14 04:28:23;;;;;;;18.00;12.77;;;8.60;99.90;;;;;;5057296;28;20205;-84
2021/12/14 04:30:49;;;;;;;16.97;13.00;;;8.50;99.90;;;;;;5059925;28;20200;-82
2021/12/14 04:33:28;;;;;;;17.03;12.83;;;8.50;99.90;;;;;;5062797;28;20188;-82
2021/12/14 04:35:57;;;;;;;17.23;12.53;;;8.60;99.90;;;;;;5074682;28;20173;-81
2021/12/14 04:38:35;;;;;;;16.40;12.40;;;8.60;99.90;;;;;;5059884;28;20178;-81
2021/12/14 04:52:22;;;;;;;17.43;12.63;;;8.60;99.90;;;;;;5072640;28;20172;-81
2021/12/14 04:54:51;;;;;;;16.67;12.40;;;8.60;99.90;;;;;;5073707;28;20250;-81
2021/12/14 04:57:24;;;;;;;18.17;13.70;;;8.60;99.90;;;;;;5077239;28;20181;-80
2021/12/14 04:59:55;;;;;;;18.37;13.70;;;8.50;99.90;;;;;;5070092;28;20640;-82
2021/12/14 05:02:31;;;;;;;18.30;13.63;;;8.60;99.90;;;;;;5060158;28;20200;-80
2021/12/14 05:04:59;;;;;;;17.90;13.17;;;8.60;99.90;;;;;;5056770;28;20164;-84
2021/12/14 05:10:06;;;;;;;19.37;14.60;;;8.50;99.90;;;;;;5060276;28;20481;-82
2021/12/14 05:12:34;;;;;;;21.23;14.37;;;8.60;99.90;;;;;;5055733;28;20267;-84
2021/12/14 05:15:05;;;;;;;20.30;14.30;;;8.70;99.90;;;;;;5055434;28;20188;-84
2021/12/14 05:17:33;;;;;;;19.97;14.70;;;8.50;99.90;;;;;;5057840;28;20173;-82
2021/12/14 05:19:59;;;;;;;22.10;15.50;;;8.50;99.90;;;;;;5057859;28;20580;-83
2021/12/14 05:22:33;;;;;;;21.20;15.33;;;8.50;99.90;;;;;;5056796;28;20181;-84
2021/12/14 05:25:13;;;;;;;23.73;15.53;;;8.50;99.90;;;;;;5055322;28;20547;-85
2021/12/14 05:27:50;;;;;;;22.27;14.83;;;8.50;99.90;;;;;;5055725;28;20291;-82
2021/12/14 05:30:27;;;;;;;19.00;13.60;;;8.60;99.90;;;;;;5055561;28;20173;-82
2021/12/14 05:33:05;;;;;;;20.80;14.20;;;8.50;99.90;;;;;;5055795;28;20176;-83
2021/12/14 05:35:31;;;;;;;22.20;15.00;;;8.60;99.90;;;;;;5055749;28;20539;-82
2021/12/14 05:37:59;;;;;;;21.83;14.33;;;8.60;99.90;;;;;;5055446;28;20579;-83
2021/12/14 05:43:23;;;;;;;22.90;15.70;;;8.80;99.90;;;;;;5056628;28;20291;-89
2021/12/14 05:45:55;;;;;;;22.47;14.97;;;8.80;99.90;;;;;;5055366;28;20169;-87
2021/12/14 05:48:26;;;;;;;22.60;15.13;;;8.80;99.90;;;;;;5055285;28;20224;-83
2021/12/14 05:50:55;;;;;;;21.93;14.77;;;8.60;99.90;;;;;;5055635;28;20268;-85
2021/12/14 05:53:29;;;;;;;22.37;15.10;;;8.70;99.90;;;;;;5055324;28;20181;-82
2021/12/14 05:55:56;;;;;;;21.27;15.57;;;8.70;99.90;;;;;;5055403;28;20169;-87
2021/12/14 05:58:24;;;;;;;22.30;15.37;;;8.70;99.90;;;;;;5055667;28;20231;-84
2021/12/14 06:00:54;;;;;;;21.80;15.63;;;8.60;99.90;;;;;;5054880;28;20177;-86
2021/12/14 06:03:27;;;;;;;22.63;16.07;;;8.60;99.90;;;;;;5055309;28;20187;-82
2021/12/14 06:05:53;;;;;;;25.50;16.23;;;9.00;99.90;;;;;;5055541;28;20173;-83
2021/12/14 06:08:26;;;;;;;23.40;15.13;;;8.80;99.90;;;;;;5057434;28;20280;-80
2021/12/14 06:10:53;;;;;;;23.23;16.37;;;8.70;99.90;;;;;;5068377;28;20157;-82
2021/12/14 06:13:19;;;;;;;24.77;16.63;;;8.60;99.90;;;;;;5062501;28;20811;-85
2021/12/14 06:15:46;;;;;;;23.33;15.70;;;8.50;99.90;;;;;;5054671;28;20250;-86
2021/12/14 06:18:20;;;;;;;21.43;15.53;;;8.40;99.90;;;;;;5054799;28;20188;-86
2021/12/14 06:20:46;;;;;;;21.30;15.37;;;8.50;99.90;;;;;;5038996;28;20596;-83
2021/12/14 06:23:13;;;;;;;24.43;16.30;;;8.60;99.90;;;;;;5056196;28;20177;-84
2021/12/14 06:25:39;;;;;;;24.40;17.00;;;8.40;99.90;;;;;;5055591;28;20591;-82
2021/12/14 06:28:06;;;;;;;23.83;15.37;;;8.40;99.90;;;;;;5054856;28;20223;-85
2021/12/14 06:30:35;;;;;;;24.37;16.87;;;8.60;99.90;;;;;;5055297;28;20180;-83
2021/12/14 06:33:07;;;;;;;24.43;16.77;;;8.60;99.90;;;;;;5061393;28;20181;-83
2021/12/14 06:35:41;;;;;;;28.87;17.67;;;8.50;99.90;;;;;;5063385;28;20184;-82
2021/12/14 06:38:25;;;;;;;29.07;17.77;;;8.40;99.90;;;;;;5068260;28;20192;-81
2021/12/14 06:41:20;;;;;;;25.27;16.97;;;8.40;99.90;;;;;;5051629;28;20161;-82
2021/12/14 06:43:49;;;;;;;31.97;19.07;;;8.40;99.90;;;;;;5045829;28;20181;-82
2021/12/14 06:46:26;;;;;;;29.40;19.00;;;8.40;99.90;;;;;;5041107;28;20169;-82
2021/12/14 06:48:56;;;;;;;29.07;18.37;;;8.40;99.90;;;;;;5018122;28;20244;-80
2021/12/14 06:51:32;;;;;;;27.57;17.97;;;8.40;99.90;;;;;;5018203;28;20264;-84
2021/12/14 06:54:08;;;;;;;30.10;19.70;;;8.40;99.90;;;;;;5035234;28;20173;-83
2021/12/14 06:56:35;;;;;;;32.03;19.50;;;8.50;99.90;;;;;;5036914;28;20171;-82
2021/12/14 06:59:07;;;;;;;31.63;18.90;;;8.50;99.90;;;;;;5030082;28;20166;-84
2021/12/14 07:01:40;;;;;;;29.87;19.03;;;8.50;99.90;;;;;;5024677;28;20184;-84
2021/12/14 07:04:10;;;;;;;30.53;19.43;;;8.50;99.90;;;;;;5073990;28;20185;-81
2021/12/14 07:06:41;;;;;;;31.87;19.63;;;8.50;99.90;;;;;;5061631;28;20216;-82
2021/12/14 07:09:29;;;;;;;31.33;19.27;;;8.40;99.90;;;;;;5060202;28;20181;-82
2021/12/14 07:12:08;;;;;;;30.80;19.27;;;8.40;99.90;;;;;;5056469;28;20223;-82
2021/12/14 07:14:42;;;;;;;30.90;20.00;;;8.40;99.90;;;;;;5038045;28;20193;-82
2021/12/14 07:17:24;;;;;;;33.50;20.20;;;8.50;99.90;;;;;;5037231;28;20629;-82
2021/12/14 07:19:55;;;;;;;35.23;20.07;;;8.50;99.90;;;;;;5040158;28;20176;-82
2021/12/14 07:22:30;;;;;;;38.27;21.00;;;8.50;99.90;;;;;;5055808;28;20153;-80
2021/12/14 07:25:20;;;;;;;35.97;20.90;;;8.60;99.90;;;;;;5061242;28;20160;-82
2021/12/14 07:27:49;;;;;;;32.37;20.10;;;8.60;99.90;;;;;;5040989;28;20215;-82
2021/12/14 07:30:24;;;;;;;35.67;20.67;;;8.60;99.90;;;;;;5043996;28;20211;-82
2021/12/14 07:32:57;;;;;;;39.13;21.73;;;8.70;99.90;;;;;;5041346;28;20180;-85
2021/12/14 07:35:40;;;;;;;38.80;22.97;;;8.70;99.90;;;;;;5056265;28;20176;-87
2021/12/14 07:38:22;;;;;;;39.17;22.37;;;8.80;99.90;;;;;;5053762;28;20574;-84
2021/12/14 07:40:55;;;;;;;40.40;21.87;;;8.90;99.90;;;;;;5037154;28;20177;-81
2021/12/14 07:43:26;;;;;;;36.10;21.53;;;8.80;99.90;;;;;;5054788;28;20188;-82
2021/12/14 07:45:56;;;;;;;37.67;20.50;;;8.70;99.90;;;;;;5054288;28;20232;-82
2021/12/14 07:48:44;;;;;;;37.17;21.67;;;8.90;99.90;;;;;;5059006;28;20216;-83
2021/12/14 07:51:11;;;;;;;39.93;22.00;;;8.70;99.90;;;;;;5050927;28;20169;-83
2021/12/14 07:53:47;;;;;;;38.47;21.37;;;8.70;99.90;;;;;;5057889;28;20184;-88
2021/12/14 07:56:31;;;;;;;39.37;22.87;;;8.80;99.90;;;;;;5037290;28;20262;-85
2021/12/14 07:58:58;;;;;;;33.83;20.30;;;8.70;99.90;;;;;;5059544;28;20626;-86
2021/12/14 08:01:25;;;;;;;42.73;22.83;;;8.60;99.90;;;;;;5058108;28;20165;-87
2021/12/14 08:04:00;;;;;;;41.63;22.57;;;8.60;99.90;;;;;;5047675;28;20267;-81
2021/12/14 08:06:26;;;;;;;40.60;21.23;;;8.60;99.90;;;;;;5055909;28;20161;-86
2021/12/14 08:08:55;;;;;;;38.17;21.20;;;8.70;99.90;;;;;;5040102;28;20217;-89
2021/12/14 08:14:09;;;;;;;36.13;22.03;;;8.60;99.90;;;;;;5059568;28;20180;-87
2021/12/14 08:16:39;;;;;;;41.20;22.90;;;8.60;99.90;;;;;;5039267;28;20610;-87
2021/12/14 08:19:05;;;;;;;35.37;21.87;;;8.80;99.90;;;;;;5038748;28;20169;-88
2021/12/14 08:21:31;;;;;;;37.57;22.23;;;8.90;99.90;;;;;;5056491;28;20184;-88
2021/12/14 08:24:02;;;;;;;38.70;22.40;;;9.00;99.90;;;;;;5057439;28;20177;-84
2021/12/14 08:26:36;;;;;;;36.97;23.67;;;9.00;99.90;;;;;;5047728;28;20175;-86
2021/12/14 08:29:16;;;;;;;45.60;23.73;;;9.10;99.90;;;;;;5062817;28;20734;-86
2021/12/14 08:32:08;;;;;;;39.77;24.03;;;9.20;99.90;;;;;;5047508;28;20184;-83
2021/12/14 08:34:38;;;;;;;39.33;23.77;;;9.10;99.90;;;;;;5050976;28;20187;-89
2021/12/14 08:37:12;;;;;;;37.80;22.63;;;8.90;99.90;;;;;;5050218;28;20169;-86
2021/12/14 08:40:00;;;;;;;46.47;23.40;;;9.00;99.90;;;;;;5055453;28;20176;-88
2021/12/14 08:42:53;;;;;;;40.17;23.53;;;8.90;99.90;;;;;;5053819;28;20169;-85
2021/12/14 08:45:26;;;;;;;42.00;22.87;;;8.80;99.90;;;;;;5043296;28;20204;-85
2021/12/14 08:48:16;;;;;;;39.30;22.43;;;8.70;99.90;;;;;;5059426;28;20193;-87
2021/12/14 08:54:10;;;;;;;34.47;21.30;;;8.60;99.90;;;;;;5080167;28;20164;-82
2021/12/14 08:57:16;;;;;;;38.20;23.13;;;8.70;99.90;;;;;;5064010;28;20256;-87
2021/12/14 09:03:09;;;;;;;33.10;21.10;;;8.80;99.90;;;;;;5048224;28;20215;-82
2021/12/14 09:05:46;;;;;;;37.13;22.67;;;8.80;99.90;;;;;;5029205;28;20177;-86
2021/12/14 09:08:17;;;;;;;32.50;19.93;;;8.80;99.90;;;;;;5024597;28;20214;-83
2021/12/14 09:10:54;;;;;;;35.20;21.57;;;8.90;99.90;;;;;;5044533;28;20173;-83
2021/12/14 09:13:27;;;;;;;36.53;22.93;;;8.90;99.90;;;;;;5072052;28;20203;-82
2021/12/14 09:16:18;;;;;;;36.97;23.03;;;8.90;99.90;;;;;;5059948;28;20207;-87
2021/12/14 09:18:52;;;;;;;36.90;21.50;;;8.90;99.90;;;;;;5053813;28;20165;-80
2021/12/14 09:21:24;;;;;;;39.10;22.90;;;9.00;99.90;;;;;;5069878;28;20195;-81
2021/12/14 09:23:58;;;;;;;36.17;21.17;;;9.10;99.90;;;;;;5074705;28;20184;-85
2021/12/14 09:26:31;;;;;;;36.07;21.50;;;9.00;99.90;;;;;;5059861;28;20271;-83
2021/12/14 09:28:58;;;;;;;31.77;21.07;;;9.00;99.90;;;;;;5069286;28;20208;-79
2021/12/14 09:31:28;;;;;;;35.17;21.30;;;9.00;99.90;;;;;;5053987;28;20161;-87
2021/12/14 09:33:57;;;;;;;34.50;20.40;;;9.00;99.90;;;;;;5037315;28;20177;-92
2021/12/14 09:36:29;;;;;;;33.30;21.33;;;9.00;99.90;;;;;;5041725;28;20184;-83
2021/12/14 09:38:59;;;;;;;32.93;19.87;;;9.10;99.90;;;;;;5042759;28;20170;-86
2021/12/14 09:42:03;;;;;;;30.80;19.90;;;9.10;99.90;;;;;;5041552;28;20184;-85
2021/12/14 09:44:53;;;;;;;32.30;20.43;;;9.10;99.90;;;;;;5038471;28;20173;-82
2021/12/14 09:47:26;;;;;;;31.37;20.57;;;9.10;99.90;;;;;;5035847;28;20209;-89
2021/12/14 09:50:37;;;;;;;32.70;20.57;;;9.10;99.90;;;;;;5041218;28;20186;-88
2021/12/14 09:53:24;;;;;;;31.80;21.67;;;9.20;99.90;;;;;;5040940;28;20170;-93
2021/12/14 09:55:55;;;;;;;32.70;21.07;;;9.40;99.90;;;;;;5038331;28;20190;-88
2021/12/14 09:58:34;;;;;;;29.50;20.63;;;9.70;99.90;;;;;;5054764;28;20162;-88
2021/12/14 10:01:22;;;;;;;33.60;21.10;;;9.60;99.90;;;;;;5025240;28;20193;-83
2021/12/14 10:03:54;;;;;;;33.63;20.07;;;9.70;99.90;;;;;;5059521;28;20165;-89
2021/12/14 10:06:27;;;;;;;29.90;19.03;;;9.60;99.90;;;;;;5058653;28;20189;-86
2021/12/14 10:09:14;;;;;;;30.63;20.20;;;9.50;99.90;;;;;;5062601;28;20256;-88
2021/12/14 10:14:29;;;;;;;33.80;21.10;;;9.50;99.90;;;;;;5056460;28;20199;-86
2021/12/14 10:17:48;;;;;;;32.73;20.47;;;9.40;99.90;;;;;;5072759;28;20216;-84
2021/12/14 10:20:27;;;;;;;28.77;19.97;;;9.50;99.90;;;;;;5054461;28;20191;-88
2021/12/14 10:22:58;;;;;;;30.83;19.13;;;9.60;99.90;;;;;;5040081;28;20166;-89
2021/12/14 10:25:27;;;;;;;32.80;20.90;;;9.50;99.90;;;;;;5023668;28;20165;-90
2021/12/14 10:27:56;;;;;;;30.03;19.60;;;9.50;99.90;;;;;;5024424;28;20300;-94
2021/12/14 10:30:44;;;;;;;30.07;20.30;;;9.50;99.90;;;;;;5023558;28;20226;-91
2021/12/14 10:33:11;;;;;;;30.37;19.53;;;9.50;99.90;;;;;;5022107;28;20177;-93
2021/12/14 10:35:45;;;;;;;31.57;19.53;;;9.50;99.90;;;;;;5037273;28;20206;-89
2021/12/14 10:38:28;;;;;;;29.90;19.13;;;9.40;99.90;;;;;;5047277;28;20633;-91
2021/12/14 10:44:04;;;;;;;30.60;19.27;;;9.50;99.90;;;;;;5046596;28;20229;-89
2021/12/14 10:46:45;;;;;;;30.87;20.47;;;9.50;99.90;;;;;;5044803;28;20194;-90
2021/12/14 10:49:19;;;;;;;33.17;20.57;;;9.50;99.90;;;;;;5057219;28;20277;-87
2021/12/14 10:51:52;;;;;;;29.60;19.93;;;9.50;99.90;;;;;;5018076;28;20210;-92
2021/12/14 10:54:20;;;;;;;34.97;20.57;;;9.50;99.90;;;;;;5051037;28;20228;-86
2021/12/14 10:56:56;;;;;;;30.80;20.07;;;9.50;99.90;;;;;;5077389;28;20187;-84
2021/12/14 10:59:31;;;;;;;31.77;19.47;;;9.60;99.90;;;;;;5074872;28;20180;-81
2021/12/14 11:01:57;;;;;;;32.33;20.97;;;9.50;99.90;;;;;;5058253;28;20191;-84
2021/12/14 11:04:39;;;;;;;33.60;21.37;;;9.50;99.90;;;;;;5030613;28;20177;-85
2021/12/14 11:07:51;;;;;;;31.33;21.03;;;9.50;99.90;;;;;;5039405;28;20220;-87
2021/12/14 11:11:12;;;;;;;34.37;21.67;;;9.60;99.90;;;;;;5054453;28;20181;-85
2021/12/14 11:13:52;;;;;;;33.37;19.97;;;9.60;99.90;;;;;;5037345;28;20188;-85
2021/12/14 11:19:34;;;;;;;33.13;21.73;;;9.60;99.90;;;;;;5056092;28;20168;-83
2021/12/14 11:22:23;;;;;;;35.43;21.03;;;9.60;99.90;;;;;;5009510;28;20169;-83
2021/12/14 11:25:09;;;;;;;34.90;21.33;;;9.50;99.90;;;;;;5033469;28;20174;-83
2021/12/14 11:27:41;;;;;;;33.33;20.27;;;9.60;99.90;;;;;;5035047;28;20276;-83
2021/12/14 11:33:42;;;;;;;30.37;21.10;;;9.50;99.90;;;;;;5048069;28;20161;-95
2021/12/14 11:36:10;;;;;;;32.07;22.70;;;9.50;99.90;;;;;;5033597;28;20268;-90
2021/12/14 11:39:35;;;;;;;34.50;21.83;;;9.50;99.90;;;;;;5037559;28;20187;-82
2021/12/14 11:42:36;;;;;;;31.40;20.60;;;9.70;99.90;;;;;;5019796;28;20190;-80
2021/12/14 11:45:11;;;;;;;35.83;22.10;;;9.90;99.90;;;;;;5004419;28;20288;-94
2021/12/14 11:47:46;;;;;;;40.40;24.23;;;9.90;99.90;;;;;;5023080;28;20209;-92
2021/12/14 11:50:21;;;;;;;34.50;21.50;;;9.80;99.90;;;;;;5007959;28;20181;-89
2021/12/14 11:52:53;;;;;;;32.83;22.23;;;9.80;99.90;;;;;;5022157;28;20173;-90
2021/12/14 11:55:41;;;;;;;32.13;20.20;;;9.80;99.90;;;;;;5038481;28;20196;-90
2021/12/14 11:58:24;;;;;;;33.60;21.53;;;9.80;99.90;;;;;;5037686;28;20157;-88
2021/12/14 12:00:57;;;;;;;33.50;21.47;;;9.70;99.90;;;;;;5053594;28;20232;-83
2021/12/14 12:03:39;;;;;;;31.30;21.17;;;9.80;99.90;;;;;;5055510;28;20180;-87
2021/12/14 12:06:24;;;;;;;33.27;21.80;;;9.80;99.90;;;;;;5054792;28;20176;-89
2021/12/14 12:12:24;;;;;;;37.00;21.63;;;9.80;99.90;;;;;;5045953;28;20555;-92
2021/12/14 12:15:11;;;;;;;37.77;20.83;;;9.80;99.90;;;;;;4996363;28;20601;-89
2021/12/14 12:17:46;;;;;;;29.97;20.60;;;9.80;99.90;;;;;;5042632;28;20193;-89
2021/12/14 12:20:18;;;;;;;34.63;22.23;;;9.90;99.90;;;;;;5054786;28;20176;-85
2021/12/14 12:23:29;;;;;;;34.83;22.43;;;10.00;99.90;;;;;;5051761;28;20169;-90
2021/12/14 12:26:09;;;;;;;32.43;21.50;;;10.00;99.90;;;;;;5050965;28;20271;-86
2021/12/14 12:28:42;;;;;;;37.03;22.73;;;10.00;99.90;;;;;;5039462;28;20654;-90
2021/12/14 12:31:17;;;;;;;35.03;22.13;;;10.00;99.90;;;;;;5021596;28;20642;-88
2021/12/14 12:33:50;;;;;;;33.10;21.97;;;10.00;99.90;;;;;;5035690;28;20572;-89
2021/12/14 12:36:26;;;;;;;32.27;21.50;;;10.00;99.90;;;;;;5064515;28;20176;-89
2021/12/14 12:39:11;;;;;;;33.10;21.43;;;10.00;99.90;;;;;;5047614;28;20173;-87
2021/12/14 12:42:00;;;;;;;35.77;21.67;;;10.00;99.90;;;;;;5068983;28;20176;-87
2021/12/14 12:44:31;;;;;;;32.67;22.63;;;10.30;99.90;;;;;;5076085;28;20187;-87
2021/12/14 12:47:20;;;;;;;32.43;21.87;;;10.30;99.90;;;;;;5059369;28;20203;-86
2021/12/14 12:49:54;;;;;;;35.47;22.40;;;10.40;99.90;;;;;;5059307;28;20199;-87
2021/12/14 12:52:27;;;;;;;33.30;22.20;;;10.20;99.90;;;;;;5075861;28;20188;-89
2021/12/14 12:58:38;;;;;;;34.00;19.97;;;10.20;99.90;;;;;;5069518;28;20256;-89
2021/12/14 13:01:34;;;;;;;32.50;22.13;;;10.00;99.90;;;;;;5064625;28;20160;-90
2021/12/14 13:04:04;;;;;;;31.87;21.50;;;10.00;99.90;;;;;;5053986;28;20203;-86
2021/12/14 13:06:30;;;;;;;34.60;21.47;;;10.20;99.90;;;;;;5076684;28;20169;-86
2021/12/14 13:08:59;;;;;;;34.63;22.50;;;10.30;99.90;;;;;;5075742;28;20217;-87
2021/12/14 13:11:35;;;;;;;31.00;20.60;;;10.30;99.90;;;;;;5056662;28;20692;-87
2021/12/14 13:14:09;;;;;;;35.33;22.30;;;10.30;99.90;;;;;;5050031;28;20177;-91
2021/12/14 13:16:49;;;;;;;33.43;21.97;;;10.30;99.90;;;;;;5035881;28;20261;-84
2021/12/14 13:19:23;;;;;;;37.10;20.07;;;10.10;99.90;;;;;;5033865;28;20212;-85
2021/12/14 13:21:57;;;;;;;33.93;22.37;;;10.10;99.90;;;;;;5059589;28;20216;-88
2021/12/14 13:24:45;;;;;;;33.13;21.63;;;10.20;99.90;;;;;;5062708;28;20180;-83
2021/12/14 13:27:20;;;;;;;31.83;21.50;;;10.20;99.90;;;;;;5056065;28;20212;-87
2021/12/14 13:29:51;;;;;;;32.90;21.33;;;10.40;99.90;;;;;;5077552;28;20172;-90
2021/12/14 13:32:30;;;;;;;34.87;22.33;;;10.20;99.90;;;;;;5057228;28;20240;-88
2021/12/14 13:35:24;;;;;;;34.60;22.57;;;10.10;99.90;;;;;;5031322;28;20665;-89
2021/12/14 13:41:16;;;;;;;29.60;20.07;;;10.10;99.90;;;;;;5062337;28;20161;-87
2021/12/14 13:43:41;;;;;;;36.57;22.70;;;10.10;99.90;;;;;;5044825;28;20181;-87
2021/12/14 13:46:20;;;;;;;31.13;21.00;;;10.10;99.90;;;;;;5047183;28;20237;-90
2021/12/14 13:48:46;;;;;;;34.27;22.43;;;10.10;99.90;;;;;;5055418;28;20204;-88
2021/12/14 13:51:16;;;;;;;31.87;21.83;;;10.20;99.90;;;;;;5058592;28;20176;-88
2021/12/14 13:53:43;;;;;;;31.43;20.27;;;10.20;99.90;;;;;;5059329;28;20185;-89
2021/12/14 13:56:22;;;;;;;33.77;21.03;;;10.10;99.90;;;;;;5051749;28;20264;-89
2021/12/14 13:59:27;;;;;;;35.03;22.60;;;10.00;99.90;;;;;;5069429;28;20187;-88
2021/12/14 14:01:59;;;;;;;34.30;21.40;;;10.00;99.90;;;;;;5059652;28;20158;-87
2021/12/14 14:04:25;;;;;;;36.00;22.53;;;10.00;99.90;;;;;;5036937;28;20195;-92
2021/12/14 14:06:54;;;;;;;34.07;23.60;;;10.00;99.90;;;;;;5048954;28;20629;-87
2021/12/14 14:09:23;;;;;;;31.87;21.90;;;10.00;99.90;;;;;;5049648;28;20386;-91
2021/12/14 14:11:54;;;;;;;33.07;22.60;;;10.00;99.90;;;;;;5044025;28;20177;-90
2021/12/14 14:14:27;;;;;;;36.93;22.90;;;10.10;99.90;;;;;;5026905;28;20671;-90
2021/12/14 14:16:55;;;;;;;32.37;21.37;;;10.20;99.90;;;;;;5046429;28;20225;-90